createdAt,value
2018-03-19T00:01:03.075Z,-3.40
2018-03-19T00:03:31.758Z,-3.40
2018-03-19T00:06:00.242Z,-3.50
2018-03-19T00:08:28.898Z,-3.40
2018-03-19T00:10:57.587Z,-3.50
2018-03-19T00:13:26.299Z,-3.50
2018-03-19T00:15:54.978Z,-3.40
2018-03-19T00:18:23.658Z,-3.50
2018-03-19T00:20:52.339Z,-3.50
2018-03-19T00:23:21.031Z,-3.50
2018-03-19T00:25:49.739Z,-3.60
2018-03-19T00:28:18.420Z,-3.60
2018-03-19T00:30:47.527Z,-3.70
2018-03-19T00:33:16.203Z,-3.70
2018-03-19T00:35:44.882Z,-3.60
2018-03-19T00:38:13.922Z,-3.60
2018-03-19T00:40:43.166Z,-3.50
2018-03-19T00:43:11.650Z,-3.50
2018-03-19T00:45:40.336Z,-3.60
2018-03-19T00:48:09.026Z,-3.60
2018-03-19T00:50:37.714Z,-3.60
2018-03-19T00:53:06.394Z,-3.60
2018-03-19T00:55:35.094Z,-3.60
2018-03-19T00:58:03.783Z,-3.60
2018-03-19T01:00:32.144Z,-3.60
2018-03-19T01:03:02.992Z,-3.60
2018-03-19T01:05:31.669Z,-3.60
2018-03-19T01:08:00.363Z,-3.60
2018-03-19T01:10:29.063Z,-3.60
2018-03-19T01:12:57.785Z,-3.60
2018-03-19T01:15:27.237Z,-3.50
2018-03-19T01:17:55.918Z,-3.50
2018-03-19T01:20:24.595Z,-3.60
2018-03-19T01:22:52.943Z,-3.70
2018-03-19T01:25:22.401Z,-3.80
2018-03-19T01:27:51.089Z,-3.80
2018-03-19T01:30:19.755Z,-3.90
2018-03-19T01:32:48.438Z,-3.90
2018-03-19T01:35:17.116Z,-4.00
2018-03-19T01:37:45.803Z,-4.00
2018-03-19T01:40:14.490Z,-4.00
2018-03-19T01:42:43.176Z,-3.90
2018-03-19T01:45:11.850Z,-4.00
2018-03-19T01:47:41.288Z,-4.10
2018-03-19T01:50:09.978Z,-4.10
2018-03-19T01:52:48.760Z,-4.10
2018-03-19T01:55:17.865Z,-4.20
2018-03-19T01:57:47.315Z,-4.20
2018-03-19T02:00:16.520Z,-4.30
2018-03-19T02:02:45.203Z,-4.20
2018-03-19T02:05:13.892Z,-4.30
2018-03-19T02:07:42.594Z,-4.40
2018-03-19T02:10:11.280Z,-4.50
2018-03-19T02:12:39.964Z,-4.50
2018-03-19T02:15:08.652Z,-4.50
2018-03-19T02:17:37.339Z,-4.50
2018-03-19T02:20:05.684Z,-4.50
2018-03-19T02:22:34.385Z,-4.40
2018-03-19T02:25:03.070Z,-4.40
2018-03-19T02:27:31.779Z,-4.50
2018-03-19T02:30:00.457Z,-4.50
2018-03-19T02:32:29.143Z,-4.50
2018-03-19T02:34:57.819Z,-4.50
2018-03-19T02:37:26.523Z,-4.60
2018-03-19T02:39:55.188Z,-4.70
2018-03-19T02:42:24.696Z,-4.70
2018-03-19T02:44:53.213Z,-4.70
2018-03-19T02:47:21.907Z,-4.70
2018-03-19T02:49:51.360Z,-4.70
2018-03-19T02:52:20.041Z,-4.80
2018-03-19T02:54:48.720Z,-4.70
2018-03-19T02:57:17.403Z,-4.70
2018-03-19T02:59:46.087Z,-4.80
2018-03-19T03:02:14.867Z,-4.80
2018-03-19T03:04:43.550Z,-4.70
2018-03-19T03:07:12.998Z,-4.80
2018-03-19T03:09:41.654Z,-4.80
2018-03-19T03:12:10.337Z,-4.70
2018-03-19T03:14:39.030Z,-4.70
2018-03-19T03:17:07.703Z,-4.80
2018-03-19T03:19:37.160Z,-4.70
2018-03-19T03:22:05.533Z,-4.80
2018-03-19T03:24:34.190Z,-4.70
2018-03-19T03:27:02.862Z,-4.80
2018-03-19T03:29:32.331Z,-4.80
2018-03-19T03:32:01.002Z,-4.80
2018-03-19T03:34:29.676Z,-4.70
2018-03-19T03:36:58.495Z,-4.70
2018-03-19T03:39:27.176Z,-4.70
2018-03-19T03:41:55.868Z,-4.60
2018-03-19T03:44:24.558Z,-4.60
2018-03-19T03:46:53.398Z,-4.60
2018-03-19T03:49:22.061Z,-4.60
2018-03-19T03:51:51.502Z,-4.70
2018-03-19T03:54:20.192Z,-4.70
2018-03-19T03:56:48.873Z,-4.70
2018-03-19T03:59:17.558Z,-4.70
2018-03-19T04:01:46.218Z,-4.80
2018-03-19T04:04:15.768Z,-4.90
2018-03-19T04:06:44.480Z,-4.90
2018-03-19T04:09:13.159Z,-5.00
2018-03-19T04:11:41.830Z,-5.00
2018-03-19T04:14:10.564Z,-5.10
2018-03-19T04:16:40.023Z,-5.20
2018-03-19T04:19:08.711Z,-5.20
2018-03-19T04:21:37.398Z,-5.10
2018-03-19T04:24:06.083Z,-5.10
2018-03-19T04:26:34.764Z,-5.10
2018-03-19T04:29:03.432Z,-5.10
2018-03-19T04:31:32.099Z,-5.10
2018-03-19T04:34:01.544Z,-5.10
2018-03-19T04:36:30.221Z,-5.10
2018-03-19T04:38:58.897Z,-5.10
2018-03-19T04:41:27.579Z,-5.20
2018-03-19T04:43:56.263Z,-5.10
2018-03-19T04:46:24.937Z,-5.20
2018-03-19T04:48:53.606Z,-5.20
2018-03-19T04:51:22.282Z,-5.20
2018-03-19T04:53:50.952Z,-5.20
2018-03-19T04:56:20.171Z,-5.20
2018-03-19T04:58:48.843Z,-5.20
2018-03-19T05:01:17.516Z,-5.20
2018-03-19T05:03:46.218Z,-5.40
2018-03-19T05:06:14.903Z,-5.50
2018-03-19T05:08:43.576Z,-5.40
2018-03-19T05:11:12.273Z,-5.40
2018-03-19T05:13:41.123Z,-5.30
2018-03-19T05:16:09.790Z,-5.40
2018-03-19T05:18:39.239Z,-5.30
2018-03-19T05:21:07.907Z,-5.40
2018-03-19T05:23:36.575Z,-5.30
2018-03-19T05:26:06.020Z,-3.70
2018-03-19T05:28:34.686Z,-3.70
2018-03-19T05:31:03.373Z,-2.80
2018-03-19T05:33:32.245Z,-3.40
2018-03-19T05:36:01.698Z,-4.20
2018-03-19T05:38:30.431Z,-4.20
2018-03-19T05:41:14.554Z,-4.60
2018-03-19T05:43:43.214Z,-4.60
2018-03-19T05:46:12.791Z,-4.70
2018-03-19T05:48:41.466Z,-4.80
2018-03-19T05:51:11.628Z,-4.80
2018-03-19T05:53:40.322Z,-4.80
2018-03-19T05:56:08.995Z,-4.90
2018-03-19T05:58:37.700Z,-5.00
2018-03-19T06:01:06.371Z,-5.00
2018-03-19T06:03:35.900Z,-5.00
2018-03-19T06:06:04.251Z,-4.80
2018-03-19T06:08:32.931Z,-4.80
2018-03-19T06:11:01.605Z,-4.70
2018-03-19T06:13:30.293Z,-4.80
2018-03-19T06:15:59.730Z,-4.70
2018-03-19T06:18:28.441Z,-4.70
2018-03-19T06:20:58.162Z,-4.80
2018-03-19T06:23:26.991Z,-4.80
2018-03-19T06:25:55.664Z,-4.90
2018-03-19T06:28:25.127Z,-4.60
2018-03-19T06:30:53.832Z,-4.70
2018-03-19T06:33:22.513Z,-4.60
2018-03-19T06:35:51.002Z,-4.50
2018-03-19T06:38:19.486Z,-4.40
2018-03-19T06:40:48.178Z,-4.40
2018-03-19T06:43:16.992Z,-4.50
2018-03-19T06:45:47.004Z,-4.40
2018-03-19T06:48:16.478Z,-4.20
2018-03-19T06:50:45.944Z,-4.10
2018-03-19T06:53:14.615Z,-4.10
2018-03-19T06:55:43.296Z,-4.00
2018-03-19T06:58:12.726Z,-3.90
2018-03-19T07:00:41.403Z,-3.90
2018-03-19T07:03:10.083Z,-3.70
2018-03-19T07:05:38.752Z,-3.70
2018-03-19T07:08:08.201Z,-3.40
2018-03-19T07:10:36.886Z,-3.40
2018-03-19T07:13:05.555Z,-3.20
2018-03-19T07:15:34.227Z,-3.20
2018-03-19T07:18:02.916Z,-3.10
2018-03-19T07:20:31.597Z,-3.00
2018-03-19T07:23:00.284Z,-3.00
2018-03-19T07:25:45.817Z,-2.90
2018-03-19T07:28:14.707Z,-2.80
2018-03-19T07:30:43.428Z,-2.70
2018-03-19T07:33:12.435Z,-2.60
2018-03-19T07:35:41.895Z,-2.50
2018-03-19T07:38:10.558Z,-2.50
2018-03-19T07:40:39.263Z,-2.30
2018-03-19T07:43:07.955Z,-2.30
2018-03-19T07:45:36.626Z,-2.20
2018-03-19T07:48:05.311Z,-2.20
2018-03-19T07:50:33.989Z,-2.20
2018-03-19T07:53:02.697Z,-2.10
2018-03-19T07:55:31.381Z,-1.90
2018-03-19T07:58:00.580Z,-1.80
2018-03-19T08:00:29.260Z,-1.70
2018-03-19T08:02:58.798Z,-1.70
2018-03-19T08:05:28.227Z,-2.00
2018-03-19T08:07:57.686Z,-1.80
2018-03-19T08:10:26.376Z,-1.80
2018-03-19T08:12:55.052Z,-1.60
2018-03-19T08:15:24.515Z,-1.60
2018-03-19T08:17:53.950Z,-1.40
2018-03-19T08:20:22.626Z,-1.40
2018-03-19T08:22:51.313Z,-1.20
2018-03-19T08:25:20.003Z,-0.90
2018-03-19T08:27:48.692Z,-1.00
2018-03-19T08:30:17.419Z,-1.00
2018-03-19T08:32:46.103Z,-0.90
2018-03-19T08:35:14.789Z,-0.70
2018-03-19T08:37:43.473Z,-0.40
2018-03-19T08:40:12.159Z,-0.20
2018-03-19T08:42:40.835Z,-0.10
2018-03-19T08:45:09.762Z,0.00
2018-03-19T08:47:39.203Z,0.00
2018-03-19T08:50:08.694Z,0.10
2018-03-19T08:52:37.528Z,0.10
2018-03-19T08:55:06.203Z,0.20
2018-03-19T08:57:34.892Z,0.30
2018-03-19T09:00:03.254Z,0.40
2018-03-19T09:02:31.952Z,0.50
2018-03-19T09:05:00.636Z,0.50
2018-03-19T09:07:29.311Z,0.80
2018-03-19T09:09:57.972Z,0.90
2018-03-19T09:12:27.419Z,1.30
2018-03-19T09:14:56.106Z,1.30
2018-03-19T09:17:24.784Z,1.40
2018-03-19T09:19:53.459Z,1.50
2018-03-19T09:22:22.131Z,1.70
2018-03-19T09:24:51.583Z,1.80
2018-03-19T09:27:20.260Z,1.80
2018-03-19T09:29:48.933Z,1.80
2018-03-19T09:32:17.449Z,1.80
2018-03-19T09:34:46.155Z,1.90
2018-03-19T09:37:14.833Z,2.10
2018-03-19T09:39:43.511Z,2.10
2018-03-19T09:42:11.850Z,2.20
2018-03-19T09:44:40.527Z,2.30
2018-03-19T09:47:09.188Z,2.40
2018-03-19T09:49:37.862Z,2.50
2018-03-19T09:52:07.311Z,2.50
2018-03-19T09:54:36.002Z,2.10
2018-03-19T09:57:05.614Z,2.70
2018-03-19T09:59:34.292Z,2.70
2018-03-19T10:02:02.644Z,3.00
2018-03-19T10:04:31.125Z,3.10
2018-03-19T10:06:59.788Z,3.20
2018-03-19T10:09:28.511Z,2.80
2018-03-19T10:11:57.941Z,3.00
2018-03-19T10:14:26.673Z,3.00
2018-03-19T10:16:55.351Z,3.20
2018-03-19T10:19:24.036Z,3.40
2018-03-19T10:21:52.714Z,3.10
2018-03-19T10:24:21.388Z,3.20
2018-03-19T10:26:50.071Z,2.90
2018-03-19T10:29:18.744Z,2.70
2018-03-19T10:31:47.412Z,3.20
2018-03-19T10:34:16.873Z,3.50
2018-03-19T10:36:45.716Z,3.50
2018-03-19T10:39:15.161Z,3.30
2018-03-19T10:41:43.830Z,3.30
2018-03-19T10:44:12.494Z,3.40
2018-03-19T10:46:41.277Z,3.30
2018-03-19T10:49:09.960Z,3.50
2018-03-19T10:51:39.400Z,3.40
2018-03-19T10:54:07.746Z,3.40
2018-03-19T10:56:37.212Z,2.30
2018-03-19T10:59:05.887Z,2.30
2018-03-19T11:01:39.948Z,2.80
2018-03-19T11:04:14.450Z,3.30
2018-03-19T11:06:48.660Z,3.30
2018-03-19T11:09:22.780Z,3.70
2018-03-19T11:11:51.533Z,3.60
2018-03-19T11:14:21.350Z,3.10
2018-03-19T11:16:50.017Z,3.20
2018-03-19T11:19:18.688Z,3.50
2018-03-19T11:21:48.116Z,3.70
2018-03-19T11:24:16.778Z,3.70
2018-03-19T11:26:46.724Z,4.40
2018-03-19T11:29:15.394Z,4.30
2018-03-19T11:31:44.068Z,4.60
2018-03-19T11:34:12.741Z,4.80
2018-03-19T11:36:42.179Z,4.70
2018-03-19T11:39:11.274Z,4.60
2018-03-19T11:41:39.941Z,4.80
2018-03-19T11:44:08.623Z,5.00
2018-03-19T11:46:38.267Z,5.30
2018-03-19T11:49:06.754Z,5.40
2018-03-19T11:51:35.448Z,5.00
2018-03-19T11:54:03.797Z,5.20
2018-03-19T11:56:32.469Z,5.20
2018-03-19T11:59:01.923Z,5.70
2018-03-19T12:01:30.615Z,5.70
2018-03-19T12:03:59.280Z,5.80
2018-03-19T12:06:28.860Z,5.80
2018-03-19T12:08:58.299Z,6.00
2018-03-19T12:11:27.402Z,6.00
2018-03-19T12:13:56.067Z,5.70
2018-03-19T12:16:25.379Z,5.90
2018-03-19T12:18:54.052Z,5.70
2018-03-19T12:21:22.715Z,5.10
2018-03-19T12:23:52.466Z,5.70
2018-03-19T12:26:21.371Z,5.70
2018-03-19T12:28:49.860Z,6.00
2018-03-19T12:31:18.552Z,6.10
2018-03-19T12:33:47.210Z,6.00
2018-03-19T12:36:15.883Z,6.10
2018-03-19T12:38:44.543Z,6.20
2018-03-19T12:41:14.772Z,6.00
2018-03-19T12:43:43.975Z,5.90
2018-03-19T12:46:13.936Z,6.50
2018-03-19T12:48:43.424Z,6.50
2018-03-19T12:51:12.103Z,6.10
2018-03-19T12:53:40.779Z,6.30
2018-03-19T12:56:08.923Z,6.60
2018-03-19T12:58:37.596Z,6.50
2018-03-19T13:01:06.267Z,6.20
2018-03-19T13:03:35.719Z,6.30
2018-03-19T13:06:05.223Z,6.60
2018-03-19T13:08:33.936Z,6.70
2018-03-19T13:11:03.416Z,6.70
2018-03-19T13:13:32.077Z,6.80
2018-03-19T13:16:00.755Z,7.00
2018-03-19T13:18:29.402Z,7.10
2018-03-19T13:20:59.008Z,7.20
2018-03-19T13:23:27.671Z,7.20
2018-03-19T13:25:57.119Z,7.10
2018-03-19T13:28:26.814Z,7.10
2018-03-19T13:30:55.152Z,7.00
2018-03-19T13:33:24.466Z,7.00
2018-03-19T13:35:53.888Z,7.60
2018-03-19T13:38:23.331Z,7.60
2018-03-19T13:40:52.033Z,7.50
2018-03-19T13:43:20.715Z,6.90
2018-03-19T13:45:49.387Z,7.20
2018-03-19T13:48:18.056Z,7.20
2018-03-19T13:50:46.727Z,7.10
2018-03-19T13:53:16.244Z,7.40
2018-03-19T13:55:44.914Z,7.50
2018-03-19T13:58:13.587Z,7.60
2018-03-19T14:00:43.027Z,7.50
2018-03-19T14:03:11.721Z,7.50
2018-03-19T14:05:40.248Z,7.30
2018-03-19T14:08:09.100Z,7.30
2018-03-19T14:10:37.761Z,7.40
2018-03-19T14:13:06.440Z,7.40
2018-03-19T14:15:34.776Z,6.90
2018-03-19T14:18:03.447Z,7.10
2018-03-19T14:20:31.792Z,7.20
2018-03-19T14:23:00.736Z,7.20
2018-03-19T14:25:29.396Z,7.50
2018-03-19T14:27:58.139Z,7.50
2018-03-19T14:30:26.943Z,7.20
2018-03-19T14:32:56.225Z,7.20
2018-03-19T14:35:25.690Z,6.70
2018-03-19T14:37:54.356Z,6.60
2018-03-19T14:40:23.039Z,6.70
2018-03-19T14:42:51.867Z,6.90
2018-03-19T14:45:21.442Z,7.00
2018-03-19T14:47:50.114Z,7.10
2018-03-19T14:50:18.773Z,7.40
2018-03-19T14:52:48.243Z,7.30
2018-03-19T14:55:16.730Z,7.30
2018-03-19T14:57:45.071Z,7.40
2018-03-19T15:00:14.277Z,7.00
2018-03-19T15:02:42.943Z,6.90
2018-03-19T15:05:12.642Z,7.30
2018-03-19T15:07:42.083Z,7.00
2018-03-19T15:10:10.580Z,7.00
2018-03-19T15:12:39.255Z,6.90
2018-03-19T15:15:08.001Z,6.00
2018-03-19T15:17:37.435Z,5.90
2018-03-19T15:20:06.100Z,5.90
2018-03-19T15:22:36.794Z,6.30
2018-03-19T15:25:05.464Z,6.30
2018-03-19T15:27:34.144Z,6.80
2018-03-19T15:30:02.814Z,6.70
2018-03-19T15:32:31.478Z,6.90
2018-03-19T15:35:00.921Z,7.40
2018-03-19T15:37:29.592Z,7.40
2018-03-19T15:39:58.273Z,7.60
2018-03-19T15:42:26.922Z,7.90
2018-03-19T15:44:55.584Z,8.00
2018-03-19T15:47:24.248Z,8.20
2018-03-19T15:49:52.907Z,8.50
2018-03-19T15:52:22.352Z,8.00
2018-03-19T15:54:51.023Z,8.00
2018-03-19T15:57:19.687Z,7.60
2018-03-19T15:59:49.125Z,6.10
2018-03-19T16:02:17.799Z,6.10
2018-03-19T16:04:53.600Z,5.70
2018-03-19T16:07:22.275Z,5.50
2018-03-19T16:09:51.859Z,5.50
2018-03-19T16:12:20.571Z,5.70
2018-03-19T16:14:50.174Z,5.60
2018-03-19T16:17:19.628Z,5.60
2018-03-19T16:19:49.056Z,5.40
2018-03-19T16:22:17.727Z,5.40
2018-03-19T16:24:46.379Z,5.20
2018-03-19T16:27:15.074Z,4.90
2018-03-19T16:29:43.720Z,4.70
2018-03-19T16:32:12.468Z,4.60
2018-03-19T16:34:41.903Z,4.10
2018-03-19T16:37:10.236Z,4.10
2018-03-19T16:39:39.699Z,4.40
2018-03-19T16:42:08.466Z,4.40
2018-03-19T16:44:37.254Z,4.40
2018-03-19T16:47:05.964Z,4.20
2018-03-19T16:49:34.642Z,4.20
2018-03-19T16:52:03.586Z,4.00
2018-03-19T16:54:34.029Z,3.80
2018-03-19T16:57:02.700Z,3.80
2018-03-19T16:59:32.135Z,3.80
2018-03-19T17:02:00.816Z,3.70
2018-03-19T17:04:29.488Z,3.80
2018-03-19T17:06:59.131Z,3.60
2018-03-19T17:09:27.829Z,3.50
2018-03-19T17:11:56.348Z,3.50
2018-03-19T17:14:25.060Z,3.40
2018-03-19T17:16:54.497Z,3.30
2018-03-19T17:19:23.172Z,3.20
2018-03-19T17:21:51.833Z,3.30
2018-03-19T17:24:20.504Z,3.20
2018-03-19T17:26:49.229Z,3.20
2018-03-19T17:29:18.827Z,3.00
2018-03-19T17:31:47.492Z,3.00
2018-03-19T17:34:16.944Z,3.00
2018-03-19T17:36:45.637Z,2.90
2018-03-19T17:39:14.741Z,2.90
2018-03-19T17:41:43.419Z,2.90
2018-03-19T17:44:13.839Z,2.80
2018-03-19T17:46:42.502Z,2.80
2018-03-19T17:49:11.695Z,2.80
2018-03-19T17:51:40.175Z,2.70
2018-03-19T17:54:08.899Z,2.60
2018-03-19T17:56:38.507Z,2.50
2018-03-19T17:59:07.170Z,2.50
2018-03-19T18:01:35.840Z,2.50
2018-03-19T18:04:04.940Z,2.50
2018-03-19T18:06:34.259Z,2.50
2018-03-19T18:09:09.819Z,2.40
2018-03-19T18:11:44.212Z,2.40
2018-03-19T18:14:14.526Z,2.40
2018-03-19T18:19:25.849Z,2.30
2018-03-19T18:22:00.368Z,2.40
2018-03-19T18:24:30.004Z,2.30
2018-03-19T18:29:35.779Z,2.30
2018-03-19T18:32:04.582Z,2.30
2018-03-19T18:34:34.242Z,2.30
2018-03-19T18:37:03.480Z,2.30
2018-03-19T18:39:33.283Z,2.30
2018-03-19T18:42:05.884Z,2.30
2018-03-19T18:44:34.780Z,2.30
2018-03-19T18:47:05.092Z,2.20
2018-03-19T18:49:33.774Z,2.20
2018-03-19T18:52:03.209Z,2.20
2018-03-19T18:54:32.404Z,2.10
2018-03-19T18:57:01.756Z,2.00
2018-03-19T18:59:31.426Z,1.90
2018-03-19T19:02:00.126Z,1.70
2018-03-19T19:04:29.572Z,1.80
2018-03-19T19:07:02.715Z,1.80
2018-03-19T19:09:33.330Z,1.80
2018-03-19T19:14:44.091Z,1.70
2018-03-19T19:17:12.776Z,1.60
2018-03-19T19:19:42.210Z,1.60
2018-03-19T19:22:21.848Z,1.60
2018-03-19T19:24:52.631Z,1.50
2018-03-19T19:27:22.187Z,1.50
2018-03-19T19:29:54.660Z,1.50
2018-03-19T19:32:23.332Z,1.40
2018-03-19T19:37:33.118Z,1.40
2018-03-19T19:40:03.332Z,1.40
2018-03-19T19:42:32.021Z,1.30
2018-03-19T19:45:01.268Z,1.20
2018-03-19T19:47:30.313Z,1.20
2018-03-19T19:53:09.239Z,1.10
2018-03-19T19:55:39.336Z,1.00
2018-03-19T19:58:10.725Z,1.00
2018-03-19T20:00:39.406Z,1.00
2018-03-19T20:03:09.348Z,1.00
2018-03-19T20:05:44.210Z,1.00
2018-03-19T20:08:13.658Z,1.00
2018-03-19T20:10:42.766Z,1.00
2018-03-19T20:13:16.410Z,1.00
2018-03-19T20:15:46.887Z,1.00
2018-03-19T20:18:15.556Z,0.90
2018-03-19T20:20:44.236Z,0.90
2018-03-19T20:23:16.932Z,0.90
2018-03-19T20:28:24.820Z,0.60
2018-03-19T20:30:59.312Z,0.60
2018-03-19T20:33:32.996Z,0.60
2018-03-19T20:36:07.260Z,0.60
2018-03-19T20:38:46.101Z,0.60
2018-03-19T20:41:21.710Z,0.40
2018-03-19T20:43:51.473Z,0.40
2018-03-19T20:46:26.448Z,0.40
2018-03-19T20:48:54.876Z,0.30
2018-03-19T20:51:23.552Z,0.40
2018-03-19T20:53:53.986Z,0.40
2018-03-19T20:56:23.479Z,0.40
2018-03-19T20:58:55.723Z,0.30
2018-03-19T21:01:24.113Z,0.30
2018-03-19T21:03:53.587Z,0.30
2018-03-19T21:06:22.269Z,0.30
2018-03-19T21:08:50.960Z,0.30
2018-03-19T21:11:19.643Z,0.30
2018-03-19T21:13:48.764Z,0.30
2018-03-19T21:16:17.438Z,0.30
2018-03-19T21:18:50.359Z,0.20
2018-03-19T21:21:20.081Z,0.20
2018-03-19T21:23:48.815Z,0.20
2018-03-19T21:26:19.413Z,0.10
2018-03-19T21:28:48.374Z,0.10
2018-03-19T21:31:18.835Z,0.00
2018-03-19T21:33:48.424Z,0.00
2018-03-19T21:36:18.107Z,-0.20
2018-03-19T21:38:46.802Z,-0.40
2018-03-19T21:41:16.136Z,-0.50
2018-03-19T21:43:44.824Z,-0.50
2018-03-19T21:46:13.509Z,-0.50
2018-03-19T21:48:44.668Z,-0.50
2018-03-19T21:53:47.174Z,-0.60
2018-03-19T21:56:15.862Z,-0.60
2018-03-19T21:58:51.558Z,-0.70
2018-03-19T22:01:25.293Z,-0.70
2018-03-19T22:03:54.759Z,-0.80
2018-03-19T22:06:23.467Z,-0.80
2018-03-19T22:08:53.034Z,-0.80
2018-03-19T22:11:21.730Z,-0.80
2018-03-19T22:13:50.600Z,-0.70
2018-03-19T22:16:19.678Z,-0.70
2018-03-19T22:18:48.371Z,-0.70
2018-03-19T22:21:17.050Z,-0.70
2018-03-19T22:23:45.739Z,-0.80
2018-03-19T22:26:14.418Z,-0.80
2018-03-19T22:28:43.088Z,-0.80
2018-03-19T22:31:13.279Z,-0.90
2018-03-19T22:33:41.966Z,-0.90
2018-03-19T22:36:10.430Z,-0.90
2018-03-19T22:38:39.623Z,-0.90
2018-03-19T22:41:08.323Z,-0.90
2018-03-19T22:43:42.604Z,-0.90
2018-03-19T22:46:11.308Z,-0.90
2018-03-19T22:48:40.018Z,-0.90
2018-03-19T22:51:09.139Z,-0.90
2018-03-19T22:53:38.007Z,-1.00
2018-03-19T22:56:06.700Z,-1.00
2018-03-19T22:58:36.138Z,-1.00
2018-03-19T23:01:07.047Z,-1.00
2018-03-19T23:03:35.759Z,-1.10
2018-03-19T23:06:04.672Z,-1.10
2018-03-19T23:08:33.359Z,-1.10
2018-03-19T23:11:02.956Z,-1.10
2018-03-19T23:13:32.400Z,-1.10
2018-03-19T23:16:01.914Z,-1.10
2018-03-19T23:18:30.605Z,-1.10
2018-03-19T23:20:59.297Z,-1.10
2018-03-19T23:23:27.983Z,-1.20
2018-03-19T23:25:56.653Z,-1.30
2018-03-19T23:28:26.101Z,-1.20
2018-03-19T23:30:54.594Z,-1.30
2018-03-19T23:33:23.120Z,-1.30
2018-03-19T23:35:52.567Z,-1.30
2018-03-19T23:38:21.289Z,-1.30
2018-03-19T23:40:50.127Z,-1.30
2018-03-19T23:43:18.822Z,-1.40
2018-03-19T23:45:47.495Z,-1.40
2018-03-19T23:48:16.184Z,-1.40
2018-03-19T23:50:44.863Z,-1.40
2018-03-19T23:53:13.551Z,-1.50
2018-03-19T23:55:42.239Z,-1.50
2018-03-19T23:58:11.157Z,-1.50
